sensor_id;sensor_type;location;lat;lon;timestamp;P1;durP1;ratioP1;P2;durP2;ratioP2
58689;SDS011;44470;53.206;-6.106;2023-01-24T00:01:17;2.38;;;2.17;;
58689;SDS011;44470;53.206;-6.106;2023-01-24T00:03:43;3.75;;;2.20;;
58689;SDS011;44470;53.206;-6.106;2023-01-24T00:06:09;3.65;;;2.60;;
58689;SDS011;44470;53.206;-6.106;2023-01-24T00:08:34;2.70;;;2.50;;
58689;SDS011;44470;53.206;-6.106;2023-01-24T00:11:01;3.22;;;2.55;;
58689;SDS011;44470;53.206;-6.106;2023-01-24T00:13:31;3.95;;;2.50;;
58689;SDS011;44470;53.206;-6.106;2023-01-24T00:18:43;3.55;;;2.60;;
58689;SDS011;44470;53.206;-6.106;2023-01-24T00:21:13;4.80;;;2.60;;
58689;SDS011;44470;53.206;-6.106;2023-01-24T00:23:44;3.20;;;2.75;;
58689;SDS011;44470;53.206;-6.106;2023-01-24T00:26:12;3.75;;;2.50;;
58689;SDS011;44470;53.206;-6.106;2023-01-24T00:28:39;3.72;;;2.50;;
58689;SDS011;44470;53.206;-6.106;2023-01-24T00:31:05;2.65;;;2.30;;
58689;SDS011;44470;53.206;-6.106;2023-01-24T00:33:31;2.75;;;2.40;;
58689;SDS011;44470;53.206;-6.106;2023-01-24T00:35:58;2.70;;;2.47;;
58689;SDS011;44470;53.206;-6.106;2023-01-24T00:38:23;5.28;;;2.50;;
58689;SDS011;44470;53.206;-6.106;2023-01-24T00:40:49;3.72;;;2.60;;
58689;SDS011;44470;53.206;-6.106;2023-01-24T00:43:15;4.00;;;2.70;;
58689;SDS011;44470;53.206;-6.106;2023-01-24T00:45:42;4.80;;;2.50;;
58689;SDS011;44470;53.206;-6.106;2023-01-24T00:48:09;4.03;;;2.60;;
58689;SDS011;44470;53.206;-6.106;2023-01-24T00:50:35;2.60;;;2.40;;
58689;SDS011;44470;53.206;-6.106;2023-01-24T00:53:01;3.53;;;2.75;;
58689;SDS011;44470;53.206;-6.106;2023-01-24T00:55:27;3.50;;;2.63;;
58689;SDS011;44470;53.206;-6.106;2023-01-24T00:57:54;4.20;;;2.70;;
58689;SDS011;44470;53.206;-6.106;2023-01-24T01:00:20;5.35;;;2.85;;
58689;SDS011;44470;53.206;-6.106;2023-01-24T01:02:46;3.08;;;2.63;;
58689;SDS011;44470;53.206;-6.106;2023-01-24T01:05:12;4.88;;;2.80;;
58689;SDS011;44470;53.206;-6.106;2023-01-24T01:07:38;3.92;;;2.78;;
58689;SDS011;44470;53.206;-6.106;2023-01-24T01:10:04;4.07;;;2.90;;
58689;SDS011;44470;53.206;-6.106;2023-01-24T01:12:29;3.63;;;2.65;;
58689;SDS011;44470;53.206;-6.106;2023-01-24T01:14:55;5.68;;;3.05;;
58689;SDS011;44470;53.206;-6.106;2023-01-24T01:17:21;3.22;;;2.72;;
58689;SDS011;44470;53.206;-6.106;2023-01-24T01:19:50;3.85;;;2.60;;
58689;SDS011;44470;53.206;-6.106;2023-01-24T01:22:16;3.80;;;2.88;;
58689;SDS011;44470;53.206;-6.106;2023-01-24T01:24:43;3.80;;;2.70;;
58689;SDS011;44470;53.206;-6.106;2023-01-24T01:27:09;3.35;;;2.50;;
58689;SDS011;44470;53.206;-6.106;2023-01-24T01:29:34;4.10;;;2.65;;
58689;SDS011;44470;53.206;-6.106;2023-01-24T01:32:00;3.30;;;2.45;;
58689;SDS011;44470;53.206;-6.106;2023-01-24T01:34:25;4.65;;;2.65;;
58689;SDS011;44470;53.206;-6.106;2023-01-24T01:36:51;2.95;;;2.70;;
58689;SDS011;44470;53.206;-6.106;2023-01-24T01:39:16;5.05;;;2.80;;
58689;SDS011;44470;53.206;-6.106;2023-01-24T01:41:42;3.30;;;2.33;;
58689;SDS011;44470;53.206;-6.106;2023-01-24T01:44:23;3.40;;;2.40;;
58689;SDS011;44470;53.206;-6.106;2023-01-24T01:47:03;2.63;;;2.42;;
58689;SDS011;44470;53.206;-6.106;2023-01-24T01:49:32;3.20;;;2.47;;
58689;SDS011;44470;53.206;-6.106;2023-01-24T01:51:59;2.53;;;2.30;;
58689;SDS011;44470;53.206;-6.106;2023-01-24T01:54:30;2.70;;;2.28;;
58689;SDS011;44470;53.206;-6.106;2023-01-24T01:57:02;2.53;;;2.17;;
58689;SDS011;44470;53.206;-6.106;2023-01-24T01:59:32;3.42;;;2.35;;
58689;SDS011;44470;53.206;-6.106;2023-01-24T02:02:03;2.90;;;2.42;;
58689;SDS011;44470;53.206;-6.106;2023-01-24T02:04:38;2.50;;;2.28;;
58689;SDS011;44470;53.206;-6.106;2023-01-24T02:07:08;4.22;;;2.17;;
58689;SDS011;44470;53.206;-6.106;2023-01-24T02:09:36;2.63;;;2.40;;
58689;SDS011;44470;53.206;-6.106;2023-01-24T02:12:52;2.42;;;2.20;;
58689;SDS011;44470;53.206;-6.106;2023-01-24T02:14:58;2.67;;;2.10;;
58689;SDS011;44470;53.206;-6.106;2023-01-24T02:17:47;2.50;;;2.30;;
58689;SDS011;44470;53.206;-6.106;2023-01-24T02:23:08;2.08;;;1.83;;
58689;SDS011;44470;53.206;-6.106;2023-01-24T02:25:50;2.13;;;2.00;;
58689;SDS011;44470;53.206;-6.106;2023-01-24T02:28:29;2.40;;;2.20;;
58689;SDS011;44470;53.206;-6.106;2023-01-24T02:30:58;2.95;;;2.30;;
58689;SDS011;44470;53.206;-6.106;2023-01-24T02:33:24;2.20;;;2.00;;
58689;SDS011;44470;53.206;-6.106;2023-01-24T02:35:50;2.40;;;2.20;;
58689;SDS011;44470;53.206;-6.106;2023-01-24T02:38:26;2.10;;;1.80;;
58689;SDS011;44470;53.206;-6.106;2023-01-24T02:40:55;3.03;;;2.08;;
58689;SDS011;44470;53.206;-6.106;2023-01-24T02:43:34;2.63;;;2.08;;
58689;SDS011;44470;53.206;-6.106;2023-01-24T02:46:02;2.17;;;2.00;;
58689;SDS011;44470;53.206;-6.106;2023-01-24T02:48:28;2.25;;;2.00;;
58689;SDS011;44470;53.206;-6.106;2023-01-24T02:50:53;2.83;;;2.17;;
58689;SDS011;44470;53.206;-6.106;2023-01-24T02:53:37;2.20;;;1.90;;
58689;SDS011;44470;53.206;-6.106;2023-01-24T02:56:05;2.65;;;2.00;;
58689;SDS011;44470;53.206;-6.106;2023-01-24T02:58:51;3.15;;;2.13;;
58689;SDS011;44470;53.206;-6.106;2023-01-24T03:01:18;2.10;;;1.92;;
58689;SDS011;44470;53.206;-6.106;2023-01-24T03:03:48;2.22;;;2.03;;
58689;SDS011;44470;53.206;-6.106;2023-01-24T03:06:16;2.67;;;1.88;;
58689;SDS011;44470;53.206;-6.106;2023-01-24T03:08:42;3.17;;;2.22;;
58689;SDS011;44470;53.206;-6.106;2023-01-24T03:11:17;3.47;;;1.90;;
58689;SDS011;44470;53.206;-6.106;2023-01-24T03:13:42;1.58;;;1.45;;
58689;SDS011;44470;53.206;-6.106;2023-01-24T03:16:27;2.33;;;1.65;;
58689;SDS011;44470;53.206;-6.106;2023-01-24T03:19:11;2.15;;;1.80;;
58689;SDS011;44470;53.206;-6.106;2023-01-24T03:21:55;1.85;;;1.70;;
58689;SDS011;44470;53.206;-6.106;2023-01-24T03:24:39;1.60;;;1.50;;
58689;SDS011;44470;53.206;-6.106;2023-01-24T03:27:23;1.65;;;1.55;;
58689;SDS011;44470;53.206;-6.106;2023-01-24T03:30:08;2.00;;;1.73;;
58689;SDS011;44470;53.206;-6.106;2023-01-24T03:32:58;2.83;;;1.40;;
58689;SDS011;44470;53.206;-6.106;2023-01-24T03:35:47;2.20;;;2.00;;
58689;SDS011;44470;53.206;-6.106;2023-01-24T03:38:27;2.72;;;1.90;;
58689;SDS011;44470;53.206;-6.106;2023-01-24T03:41:11;2.00;;;1.70;;
58689;SDS011;44470;53.206;-6.106;2023-01-24T03:43:38;1.85;;;1.75;;
58689;SDS011;44470;53.206;-6.106;2023-01-24T03:46:16;1.88;;;1.75;;
58689;SDS011;44470;53.206;-6.106;2023-01-24T03:48:49;2.42;;;1.30;;
58689;SDS011;44470;53.206;-6.106;2023-01-24T03:51:16;2.03;;;1.60;;
58689;SDS011;44470;53.206;-6.106;2023-01-24T03:54:01;1.98;;;1.27;;
58689;SDS011;44470;53.206;-6.106;2023-01-24T03:56:34;1.65;;;1.52;;
58689;SDS011;44470;53.206;-6.106;2023-01-24T03:59:00;1.70;;;1.58;;
58689;SDS011;44470;53.206;-6.106;2023-01-24T04:01:28;1.90;;;1.45;;
58689;SDS011;44470;53.206;-6.106;2023-01-24T04:04:17;1.52;;;1.40;;
58689;SDS011;44470;53.206;-6.106;2023-01-24T04:06:43;1.48;;;1.38;;
58689;SDS011;44470;53.206;-6.106;2023-01-24T04:09:10;1.35;;;1.23;;
58689;SDS011;44470;53.206;-6.106;2023-01-24T04:11:36;1.42;;;1.33;;
58689;SDS011;44470;53.206;-6.106;2023-01-24T04:14:08;1.55;;;1.45;;
58689;SDS011;44470;53.206;-6.106;2023-01-24T04:16:37;1.60;;;1.50;;
58689;SDS011;44470;53.206;-6.106;2023-01-24T04:19:13;1.27;;;1.25;;
58689;SDS011;44470;53.206;-6.106;2023-01-24T04:21:39;1.55;;;1.45;;
58689;SDS011;44470;53.206;-6.106;2023-01-24T04:24:05;1.77;;;1.40;;
58689;SDS011;44470;53.206;-6.106;2023-01-24T04:26:32;1.58;;;1.27;;
58689;SDS011;44470;53.206;-6.106;2023-01-24T04:28:59;1.50;;;1.40;;
58689;SDS011;44470;53.206;-6.106;2023-01-24T04:31:24;1.27;;;1.17;;
58689;SDS011;44470;53.206;-6.106;2023-01-24T04:34:10;1.50;;;1.40;;
58689;SDS011;44470;53.206;-6.106;2023-01-24T04:36:38;1.73;;;1.35;;
58689;SDS011;44470;53.206;-6.106;2023-01-24T04:39:03;1.85;;;1.45;;
58689;SDS011;44470;53.206;-6.106;2023-01-24T04:41:35;1.17;;;1.10;;
58689;SDS011;44470;53.206;-6.106;2023-01-24T04:44:01;1.67;;;0.93;;
58689;SDS011;44470;53.206;-6.106;2023-01-24T04:46:29;1.00;;;1.00;;
58689;SDS011;44470;53.206;-6.106;2023-01-24T04:48:55;1.15;;;1.15;;
58689;SDS011;44470;53.206;-6.106;2023-01-24T04:51:29;2.03;;;1.33;;
58689;SDS011;44470;53.206;-6.106;2023-01-24T04:53:56;1.55;;;1.10;;
58689;SDS011;44470;53.206;-6.106;2023-01-24T04:56:25;0.82;;;0.82;;
58689;SDS011;44470;53.206;-6.106;2023-01-24T04:58:52;1.38;;;1.05;;
58689;SDS011;44470;53.206;-6.106;2023-01-24T05:01:17;1.20;;;1.10;;
58689;SDS011;44470;53.206;-6.106;2023-01-24T05:03:55;1.13;;;1.00;;
58689;SDS011;44470;53.206;-6.106;2023-01-24T05:06:28;1.30;;;1.20;;
58689;SDS011;44470;53.206;-6.106;2023-01-24T05:08:56;0.93;;;0.93;;
58689;SDS011;44470;53.206;-6.106;2023-01-24T05:11:28;0.70;;;0.70;;
58689;SDS011;44470;53.206;-6.106;2023-01-24T05:13:58;1.08;;;1.08;;
58689;SDS011;44470;53.206;-6.106;2023-01-24T05:16:23;1.10;;;1.10;;
58689;SDS011;44470;53.206;-6.106;2023-01-24T05:18:49;2.17;;;1.58;;
58689;SDS011;44470;53.206;-6.106;2023-01-24T05:21:15;1.33;;;1.17;;
58689;SDS011;44470;53.206;-6.106;2023-01-24T05:23:47;1.40;;;1.30;;
58689;SDS011;44470;53.206;-6.106;2023-01-24T05:26:22;1.52;;;0.95;;
58689;SDS011;44470;53.206;-6.106;2023-01-24T05:28:50;1.48;;;1.00;;
58689;SDS011;44470;53.206;-6.106;2023-01-24T05:31:16;0.95;;;0.95;;
58689;SDS011;44470;53.206;-6.106;2023-01-24T05:33:42;0.80;;;0.80;;
58689;SDS011;44470;53.206;-6.106;2023-01-24T05:38:41;1.40;;;1.30;;
58689;SDS011;44470;53.206;-6.106;2023-01-24T05:41:09;0.80;;;0.80;;
58689;SDS011;44470;53.206;-6.106;2023-01-24T05:43:36;0.80;;;0.80;;
58689;SDS011;44470;53.206;-6.106;2023-01-24T05:46:09;0.70;;;0.70;;
58689;SDS011;44470;53.206;-6.106;2023-01-24T05:51:09;0.90;;;0.90;;
58689;SDS011;44470;53.206;-6.106;2023-01-24T05:53:37;1.08;;;0.90;;
58689;SDS011;44470;53.206;-6.106;2023-01-24T05:56:05;0.80;;;0.80;;
58689;SDS011;44470;53.206;-6.106;2023-01-24T05:58:35;0.80;;;0.80;;
58689;SDS011;44470;53.206;-6.106;2023-01-24T06:01:06;1.17;;;1.08;;
58689;SDS011;44470;53.206;-6.106;2023-01-24T06:03:44;0.77;;;0.77;;
58689;SDS011;44470;53.206;-6.106;2023-01-24T06:06:17;1.20;;;1.10;;
58689;SDS011;44470;53.206;-6.106;2023-01-24T06:08:45;0.98;;;0.82;;
58689;SDS011;44470;53.206;-6.106;2023-01-24T06:11:15;1.08;;;1.08;;
58689;SDS011;44470;53.206;-6.106;2023-01-24T06:13:46;0.68;;;0.68;;
58689;SDS011;44470;53.206;-6.106;2023-01-24T06:16:13;0.77;;;0.63;;
58689;SDS011;44470;53.206;-6.106;2023-01-24T06:18:43;0.65;;;0.65;;
58689;SDS011;44470;53.206;-6.106;2023-01-24T06:24:08;1.08;;;1.00;;
58689;SDS011;44470;53.206;-6.106;2023-01-24T06:26:58;0.80;;;0.80;;
58689;SDS011;44470;53.206;-6.106;2023-01-24T06:29:23;0.45;;;0.45;;
58689;SDS011;44470;53.206;-6.106;2023-01-24T06:40:12;0.57;;;0.57;;
58689;SDS011;44470;53.206;-6.106;2023-01-24T06:42:39;0.75;;;0.75;;
58689;SDS011;44470;53.206;-6.106;2023-01-24T06:45:06;0.85;;;0.85;;
58689;SDS011;44470;53.206;-6.106;2023-01-24T06:47:32;0.70;;;0.70;;
58689;SDS011;44470;53.206;-6.106;2023-01-24T06:49:58;0.82;;;0.75;;
58689;SDS011;44470;53.206;-6.106;2023-01-24T06:52:23;0.63;;;0.63;;
58689;SDS011;44470;53.206;-6.106;2023-01-24T06:54:49;0.73;;;0.73;;
58689;SDS011;44470;53.206;-6.106;2023-01-24T06:57:14;0.60;;;0.60;;
58689;SDS011;44470;53.206;-6.106;2023-01-24T06:59:40;0.70;;;0.70;;
58689;SDS011;44470;53.206;-6.106;2023-01-24T07:02:06;0.80;;;0.80;;
58689;SDS011;44470;53.206;-6.106;2023-01-24T07:04:34;0.60;;;0.60;;
58689;SDS011;44470;53.206;-6.106;2023-01-24T07:07:00;0.90;;;0.80;;
58689;SDS011;44470;53.206;-6.106;2023-01-24T07:09:25;0.90;;;0.90;;
58689;SDS011;44470;53.206;-6.106;2023-01-24T07:11:51;0.77;;;0.63;;
58689;SDS011;44470;53.206;-6.106;2023-01-24T07:14:20;1.50;;;0.70;;
58689;SDS011;44470;53.206;-6.106;2023-01-24T07:16:45;0.80;;;0.80;;
58689;SDS011;44470;53.206;-6.106;2023-01-24T07:19:15;0.55;;;0.50;;
58689;SDS011;44470;53.206;-6.106;2023-01-24T07:21:42;1.25;;;0.80;;
58689;SDS011;44470;53.206;-6.106;2023-01-24T07:24:12;0.75;;;0.75;;
58689;SDS011;44470;53.206;-6.106;2023-01-24T07:26:40;0.52;;;0.52;;
58689;SDS011;44470;53.206;-6.106;2023-01-24T07:29:07;1.20;;;0.63;;
58689;SDS011;44470;53.206;-6.106;2023-01-24T07:31:32;0.47;;;0.47;;
58689;SDS011;44470;53.206;-6.106;2023-01-24T07:33:58;1.15;;;0.65;;
58689;SDS011;44470;53.206;-6.106;2023-01-24T07:36:23;0.77;;;0.68;;
58689;SDS011;44470;53.206;-6.106;2023-01-24T07:38:52;0.60;;;0.60;;
58689;SDS011;44470;53.206;-6.106;2023-01-24T07:41:18;0.60;;;0.60;;
58689;SDS011;44470;53.206;-6.106;2023-01-24T07:43:44;0.65;;;0.65;;
58689;SDS011;44470;53.206;-6.106;2023-01-24T07:46:09;0.90;;;0.70;;
58689;SDS011;44470;53.206;-6.106;2023-01-24T07:48:35;1.45;;;0.60;;
58689;SDS011;44470;53.206;-6.106;2023-01-24T07:51:00;0.63;;;0.63;;
58689;SDS011;44470;53.206;-6.106;2023-01-24T07:53:26;0.82;;;0.80;;
58689;SDS011;44470;53.206;-6.106;2023-01-24T07:55:52;0.73;;;0.70;;
58689;SDS011;44470;53.206;-6.106;2023-01-24T07:58:17;1.13;;;0.95;;
58689;SDS011;44470;53.206;-6.106;2023-01-24T08:00:43;1.38;;;0.80;;
58689;SDS011;44470;53.206;-6.106;2023-01-24T08:03:09;0.90;;;0.90;;
58689;SDS011;44470;53.206;-6.106;2023-01-24T08:05:38;0.98;;;0.98;;
58689;SDS011;44470;53.206;-6.106;2023-01-24T08:08:04;0.93;;;0.85;;
58689;SDS011;44470;53.206;-6.106;2023-01-24T08:10:29;0.90;;;0.63;;
58689;SDS011;44470;53.206;-6.106;2023-01-24T08:12:55;1.75;;;1.05;;
58689;SDS011;44470;53.206;-6.106;2023-01-24T08:15:21;4.00;;;0.88;;
58689;SDS011;44470;53.206;-6.106;2023-01-24T08:17:47;1.83;;;0.90;;
58689;SDS011;44470;53.206;-6.106;2023-01-24T08:20:13;1.40;;;1.00;;
58689;SDS011;44470;53.206;-6.106;2023-01-24T08:22:40;2.38;;;0.93;;
58689;SDS011;44470;53.206;-6.106;2023-01-24T08:25:06;6.22;;;1.27;;
58689;SDS011;44470;53.206;-6.106;2023-01-24T08:27:33;8.80;;;1.42;;
58689;SDS011;44470;53.206;-6.106;2023-01-24T08:29:59;2.15;;;0.93;;
58689;SDS011;44470;53.206;-6.106;2023-01-24T08:32:24;3.28;;;1.25;;
58689;SDS011;44470;53.206;-6.106;2023-01-24T08:34:55;4.85;;;1.10;;
58689;SDS011;44470;53.206;-6.106;2023-01-24T08:37:20;5.15;;;1.42;;
58689;SDS011;44470;53.206;-6.106;2023-01-24T08:39:46;6.15;;;1.42;;
58689;SDS011;44470;53.206;-6.106;2023-01-24T08:42:11;5.28;;;1.20;;
58689;SDS011;44470;53.206;-6.106;2023-01-24T08:44:37;4.07;;;0.95;;
58689;SDS011;44470;53.206;-6.106;2023-01-24T08:47:02;4.93;;;1.20;;
58689;SDS011;44470;53.206;-6.106;2023-01-24T08:49:28;5.53;;;1.60;;
58689;SDS011;44470;53.206;-6.106;2023-01-24T08:51:53;3.25;;;1.35;;
58689;SDS011;44470;53.206;-6.106;2023-01-24T08:54:24;2.95;;;1.20;;
58689;SDS011;44470;53.206;-6.106;2023-01-24T08:56:54;4.97;;;1.30;;
58689;SDS011;44470;53.206;-6.106;2023-01-24T08:59:20;3.85;;;1.25;;
58689;SDS011;44470;53.206;-6.106;2023-01-24T09:01:46;6.07;;;1.33;;
58689;SDS011;44470;53.206;-6.106;2023-01-24T09:04:12;2.22;;;1.25;;
58689;SDS011;44470;53.206;-6.106;2023-01-24T09:06:37;2.58;;;1.08;;
58689;SDS011;44470;53.206;-6.106;2023-01-24T09:09:03;2.90;;;1.17;;
58689;SDS011;44470;53.206;-6.106;2023-01-24T09:11:29;2.85;;;1.35;;
58689;SDS011;44470;53.206;-6.106;2023-01-24T09:13:56;2.35;;;0.98;;
58689;SDS011;44470;53.206;-6.106;2023-01-24T09:16:22;3.22;;;1.40;;
58689;SDS011;44470;53.206;-6.106;2023-01-24T09:18:47;3.45;;;1.40;;
58689;SDS011;44470;53.206;-6.106;2023-01-24T09:21:16;2.17;;;1.20;;
58689;SDS011;44470;53.206;-6.106;2023-01-24T09:23:42;4.68;;;1.20;;
58689;SDS011;44470;53.206;-6.106;2023-01-24T09:26:08;1.15;;;1.05;;
58689;SDS011;44470;53.206;-6.106;2023-01-24T09:28:33;1.75;;;0.98;;
58689;SDS011;44470;53.206;-6.106;2023-01-24T09:30:59;4.20;;;1.38;;
58689;SDS011;44470;53.206;-6.106;2023-01-24T09:33:25;2.05;;;0.95;;
58689;SDS011;44470;53.206;-6.106;2023-01-24T09:35:52;3.45;;;1.45;;
58689;SDS011;44470;53.206;-6.106;2023-01-24T09:38:21;1.83;;;1.05;;
58689;SDS011;44470;53.206;-6.106;2023-01-24T09:40:53;2.15;;;1.33;;
58689;SDS011;44470;53.206;-6.106;2023-01-24T09:51:39;1.58;;;1.23;;
58689;SDS011;44470;53.206;-6.106;2023-01-24T09:54:12;1.38;;;1.27;;
58689;SDS011;44470;53.206;-6.106;2023-01-24T09:56:49;2.97;;;1.25;;
58689;SDS011;44470;53.206;-6.106;2023-01-24T09:59:26;3.55;;;2.17;;
58689;SDS011;44470;53.206;-6.106;2023-01-24T10:02:05;2.50;;;2.30;;
58689;SDS011;44470;53.206;-6.106;2023-01-24T10:04:41;2.83;;;2.53;;
58689;SDS011;44470;53.206;-6.106;2023-01-24T10:18:51;2.55;;;2.00;;
58689;SDS011;44470;53.206;-6.106;2023-01-24T10:24:12;2.78;;;2.40;;
58689;SDS011;44470;53.206;-6.106;2023-01-24T10:26:43;4.28;;;2.55;;
58689;SDS011;44470;53.206;-6.106;2023-01-24T10:29:17;2.80;;;2.60;;
58689;SDS011;44470;53.206;-6.106;2023-01-24T10:31:49;2.78;;;2.53;;
58689;SDS011;44470;53.206;-6.106;2023-01-24T10:34:28;2.70;;;2.50;;
58689;SDS011;44470;53.206;-6.106;2023-01-24T10:37:02;4.18;;;2.25;;
58689;SDS011;44470;53.206;-6.106;2023-01-24T10:39:31;2.60;;;2.40;;
58689;SDS011;44470;53.206;-6.106;2023-01-24T10:41:57;2.70;;;2.50;;
58689;SDS011;44470;53.206;-6.106;2023-01-24T10:44:27;3.15;;;2.85;;
58689;SDS011;44470;53.206;-6.106;2023-01-24T10:50:34;2.80;;;2.60;;
58689;SDS011;44470;53.206;-6.106;2023-01-24T10:53:22;2.80;;;2.60;;
58689;SDS011;44470;53.206;-6.106;2023-01-24T10:55:59;2.33;;;2.22;;
58689;SDS011;44470;53.206;-6.106;2023-01-24T10:59:13;2.50;;;2.30;;
58689;SDS011;44470;53.206;-6.106;2023-01-24T11:01:38;2.70;;;2.47;;
58689;SDS011;44470;53.206;-6.106;2023-01-24T11:04:17;2.50;;;2.30;;
58689;SDS011;44470;53.206;-6.106;2023-01-24T11:06:47;2.47;;;2.28;;
58689;SDS011;44470;53.206;-6.106;2023-01-24T11:09:15;3.70;;;2.22;;
58689;SDS011;44470;53.206;-6.106;2023-01-24T11:11:46;2.30;;;2.10;;
58689;SDS011;44470;53.206;-6.106;2023-01-24T11:14:20;2.60;;;2.28;;
58689;SDS011;44470;53.206;-6.106;2023-01-24T11:16:49;2.28;;;2.10;;
58689;SDS011;44470;53.206;-6.106;2023-01-24T11:19:27;2.33;;;2.05;;
58689;SDS011;44470;53.206;-6.106;2023-01-24T11:21:59;2.25;;;2.05;;
58689;SDS011;44470;53.206;-6.106;2023-01-24T11:24:46;2.10;;;1.90;;
58689;SDS011;44470;53.206;-6.106;2023-01-24T11:27:16;1.98;;;1.88;;
58689;SDS011;44470;53.206;-6.106;2023-01-24T11:29:43;2.10;;;1.90;;
58689;SDS011;44470;53.206;-6.106;2023-01-24T11:43:26;2.00;;;1.90;;
58689;SDS011;44470;53.206;-6.106;2023-01-24T11:48:52;1.95;;;1.85;;
58689;SDS011;44470;53.206;-6.106;2023-01-24T12:02:40;1.85;;;1.75;;
58689;SDS011;44470;53.206;-6.106;2023-01-24T12:05:27;1.85;;;1.75;;
58689;SDS011;44470;53.206;-6.106;2023-01-24T12:08:27;1.98;;;1.88;;
58689;SDS011;44470;53.206;-6.106;2023-01-24T12:11:18;1.80;;;1.70;;
58689;SDS011;44470;53.206;-6.106;2023-01-24T12:19:27;1.83;;;1.73;;
58689;SDS011;44470;53.206;-6.106;2023-01-24T12:22:10;1.80;;;1.70;;
58689;SDS011;44470;53.206;-6.106;2023-01-24T12:24:42;1.67;;;1.58;;
58689;SDS011;44470;53.206;-6.106;2023-01-24T12:27:15;1.70;;;1.60;;
58689;SDS011;44470;53.206;-6.106;2023-01-24T12:29:48;1.52;;;1.42;;
58689;SDS011;44470;53.206;-6.106;2023-01-24T12:32:25;1.92;;;1.83;;
58689;SDS011;44470;53.206;-6.106;2023-01-24T12:38:17;1.60;;;1.50;;
58689;SDS011;44470;53.206;-6.106;2023-01-24T12:40:50;1.30;;;1.30;;
58689;SDS011;44470;53.206;-6.106;2023-01-24T12:48:46;1.70;;;1.60;;
58689;SDS011;44470;53.206;-6.106;2023-01-24T12:51:19;2.25;;;1.48;;
58689;SDS011;44470;53.206;-6.106;2023-01-24T12:59:25;2.15;;;1.65;;
58689;SDS011;44470;53.206;-6.106;2023-01-24T13:08:17;1.40;;;1.40;;
58689;SDS011;44470;53.206;-6.106;2023-01-24T13:13:45;1.65;;;1.55;;
58689;SDS011;44470;53.206;-6.106;2023-01-24T13:27:45;1.42;;;1.33;;
58689;SDS011;44470;53.206;-6.106;2023-01-24T13:30:34;1.30;;;1.20;;
58689;SDS011;44470;53.206;-6.106;2023-01-24T13:33:12;1.90;;;1.35;;
58689;SDS011;44470;53.206;-6.106;2023-01-24T13:35:45;1.42;;;1.42;;
58689;SDS011;44470;53.206;-6.106;2023-01-24T13:41:03;1.38;;;1.27;;
58689;SDS011;44470;53.206;-6.106;2023-01-24T13:49:18;1.52;;;1.30;;
58689;SDS011;44470;53.206;-6.106;2023-01-24T13:54:56;1.65;;;1.50;;
58689;SDS011;44470;53.206;-6.106;2023-01-24T13:57:23;3.33;;;1.40;;
58689;SDS011;44470;53.206;-6.106;2023-01-24T14:10:48;1.70;;;1.60;;
58689;SDS011;44470;53.206;-6.106;2023-01-24T14:16:13;2.22;;;1.10;;
58689;SDS011;44470;53.206;-6.106;2023-01-24T14:21:53;1.63;;;1.42;;
58689;SDS011;44470;53.206;-6.106;2023-01-24T14:24:54;1.27;;;1.17;;
58689;SDS011;44470;53.206;-6.106;2023-01-24T14:32:37;1.27;;;1.27;;
58689;SDS011;44470;53.206;-6.106;2023-01-24T14:35:22;2.88;;;1.30;;
58689;SDS011;44470;53.206;-6.106;2023-01-24T14:37:52;1.73;;;1.33;;
58689;SDS011;44470;53.206;-6.106;2023-01-24T14:45:15;1.48;;;1.38;;
58689;SDS011;44470;53.206;-6.106;2023-01-24T14:47:46;1.15;;;1.10;;
58689;SDS011;44470;53.206;-6.106;2023-01-24T14:50:18;1.10;;;1.10;;
58689;SDS011;44470;53.206;-6.106;2023-01-24T14:52:50;1.15;;;1.05;;
58689;SDS011;44470;53.206;-6.106;2023-01-24T14:55:36;2.00;;;1.10;;
58689;SDS011;44470;53.206;-6.106;2023-01-24T14:58:13;1.58;;;1.48;;
58689;SDS011;44470;53.206;-6.106;2023-01-24T15:00:42;5.05;;;1.48;;
58689;SDS011;44470;53.206;-6.106;2023-01-24T15:03:10;7.68;;;2.03;;
58689;SDS011;44470;53.206;-6.106;2023-01-24T15:05:54;5.22;;;1.65;;
58689;SDS011;44470;53.206;-6.106;2023-01-24T15:08:22;6.30;;;1.90;;
58689;SDS011;44470;53.206;-6.106;2023-01-24T15:10:53;9.27;;;1.80;;
58689;SDS011;44470;53.206;-6.106;2023-01-24T15:13:35;8.93;;;1.65;;
58689;SDS011;44470;53.206;-6.106;2023-01-24T15:16:06;7.22;;;1.80;;
58689;SDS011;44470;53.206;-6.106;2023-01-24T15:18:36;5.85;;;1.50;;
58689;SDS011;44470;53.206;-6.106;2023-01-24T15:21:06;4.95;;;1.80;;
58689;SDS011;44470;53.206;-6.106;2023-01-24T15:23:59;6.90;;;1.67;;
58689;SDS011;44470;53.206;-6.106;2023-01-24T15:28:56;5.93;;;1.48;;
58689;SDS011;44470;53.206;-6.106;2023-01-24T15:31:22;3.92;;;1.52;;
58689;SDS011;44470;53.206;-6.106;2023-01-24T15:33:54;3.65;;;1.60;;
58689;SDS011;44470;53.206;-6.106;2023-01-24T15:36:23;5.97;;;1.50;;
58689;SDS011;44470;53.206;-6.106;2023-01-24T15:38:55;2.45;;;1.40;;
58689;SDS011;44470;53.206;-6.106;2023-01-24T15:41:23;2.72;;;1.30;;
58689;SDS011;44470;53.206;-6.106;2023-01-24T15:44:10;8.25;;;1.33;;
58689;SDS011;44470;53.206;-6.106;2023-01-24T15:46:37;4.32;;;1.45;;
58689;SDS011;44470;53.206;-6.106;2023-01-24T15:49:34;3.33;;;1.52;;
58689;SDS011;44470;53.206;-6.106;2023-01-24T15:54:32;6.65;;;1.58;;
58689;SDS011;44470;53.206;-6.106;2023-01-24T16:02:25;4.22;;;1.40;;
58689;SDS011;44470;53.206;-6.106;2023-01-24T16:04:50;5.07;;;1.65;;
58689;SDS011;44470;53.206;-6.106;2023-01-24T16:07:16;2.72;;;1.48;;
58689;SDS011;44470;53.206;-6.106;2023-01-24T16:09:45;3.08;;;1.60;;
58689;SDS011;44470;53.206;-6.106;2023-01-24T16:12:14;3.58;;;1.40;;
58689;SDS011;44470;53.206;-6.106;2023-01-24T16:14:43;3.03;;;1.50;;
58689;SDS011;44470;53.206;-6.106;2023-01-24T16:17:12;3.67;;;1.75;;
58689;SDS011;44470;53.206;-6.106;2023-01-24T16:19:38;3.40;;;1.45;;
58689;SDS011;44470;53.206;-6.106;2023-01-24T16:25:52;3.90;;;1.60;;
58689;SDS011;44470;53.206;-6.106;2023-01-24T16:28:21;2.47;;;1.50;;
58689;SDS011;44470;53.206;-6.106;2023-01-24T16:30:49;3.30;;;1.70;;
58689;SDS011;44470;53.206;-6.106;2023-01-24T16:33:16;1.92;;;1.77;;
58689;SDS011;44470;53.206;-6.106;2023-01-24T16:35:43;1.88;;;1.50;;
58689;SDS011;44470;53.206;-6.106;2023-01-24T16:38:09;3.10;;;1.50;;
58689;SDS011;44470;53.206;-6.106;2023-01-24T16:40:37;3.25;;;1.70;;
58689;SDS011;44470;53.206;-6.106;2023-01-24T16:43:03;2.53;;;1.85;;
58689;SDS011;44470;53.206;-6.106;2023-01-24T16:45:29;1.85;;;1.75;;
58689;SDS011;44470;53.206;-6.106;2023-01-24T16:47:55;3.42;;;1.95;;
58689;SDS011;44470;53.206;-6.106;2023-01-24T16:50:21;3.05;;;1.80;;
58689;SDS011;44470;53.206;-6.106;2023-01-24T16:52:47;3.75;;;1.70;;
58689;SDS011;44470;53.206;-6.106;2023-01-24T16:55:12;5.97;;;1.83;;
58689;SDS011;44470;53.206;-6.106;2023-01-24T16:57:38;3.15;;;1.80;;
58689;SDS011;44470;53.206;-6.106;2023-01-24T17:00:04;2.53;;;1.63;;
58689;SDS011;44470;53.206;-6.106;2023-01-24T17:02:36;2.55;;;1.70;;
58689;SDS011;44470;53.206;-6.106;2023-01-24T17:05:05;2.93;;;1.47;;
58689;SDS011;44470;53.206;-6.106;2023-01-24T17:07:31;2.88;;;1.88;;
58689;SDS011;44470;53.206;-6.106;2023-01-24T17:09:57;1.83;;;1.55;;
58689;SDS011;44470;53.206;-6.106;2023-01-24T17:12:22;4.45;;;1.77;;
58689;SDS011;44470;53.206;-6.106;2023-01-24T17:14:48;3.45;;;1.52;;
58689;SDS011;44470;53.206;-6.106;2023-01-24T17:17:13;3.17;;;1.65;;
58689;SDS011;44470;53.206;-6.106;2023-01-24T17:19:39;2.42;;;2.10;;
58689;SDS011;44470;53.206;-6.106;2023-01-24T17:22:05;2.42;;;1.92;;
58689;SDS011;44470;53.206;-6.106;2023-01-24T17:24:31;2.88;;;1.88;;
58689;SDS011;44470;53.206;-6.106;2023-01-24T17:26:56;2.95;;;1.90;;
58689;SDS011;44470;53.206;-6.106;2023-01-24T17:29:22;3.45;;;2.33;;
58689;SDS011;44470;53.206;-6.106;2023-01-24T17:31:52;3.75;;;2.28;;
58689;SDS011;44470;53.206;-6.106;2023-01-24T17:34:19;3.28;;;2.30;;
58689;SDS011;44470;53.206;-6.106;2023-01-24T17:36:45;3.38;;;2.38;;
58689;SDS011;44470;53.206;-6.106;2023-01-24T17:39:11;3.47;;;2.50;;